Time;durP1;ratioP1;P1;durP2;ratioP2;P2;SDS_P1;SDS_P2;PMS_P1;PMS_P2;Temp;Humidity;BMP_temperature;BMP_pressure;BME280_temperature;BME280_humidity;BME280_pressure;Samples;Min_cycle;Max_cycle;Signal;HPM_P1;HPM_P2
2023/04/07 00:00:43;;;;;;;1.80;1.30;;;;;;;;;;5086020;28;20080;-44
2023/04/07 05:09:58;;;;;;;3.97;2.35;;;;;;;;;;5065011;28;20122;-42
2023/04/07 05:12:24;;;;;;;4.40;3.05;;;;;;;;;;5069222;28;20077;-42
2023/04/07 05:14:50;;;;;;;4.75;2.95;;;;;;;;;;5069130;28;20079;-43
2023/04/07 05:17:16;;;;;;;4.80;2.50;;;;;;;;;;5068910;28;20115;-42
2023/04/07 05:19:42;;;;;;;4.05;2.50;;;;;;;;;;5069039;28;20069;-42
2023/04/07 05:22:08;;;;;;;3.00;2.40;;;;;;;;;;5068909;28;20554;-43
2023/04/07 05:24:35;;;;;;;2.42;1.88;;;;;;;;;;5068559;28;20160;-43
2023/04/07 05:27:01;;;;;;;2.33;1.60;;;;;;;;;;5069388;28;20088;-42
2023/04/07 05:29:28;;;;;;;3.60;1.88;;;;;;;;;;5070104;28;20073;-43
2023/04/07 05:31:54;;;;;;;2.67;1.80;;;;;;;;;;5089136;28;20217;-43
2023/04/07 05:34:20;;;;;;;2.80;2.08;;;;;;;;;;5087215;28;20065;-44
2023/04/07 05:36:46;;;;;;;2.42;1.92;;;;;;;;;;5081951;28;20084;-43
2023/04/07 05:39:12;;;;;;;2.75;1.98;;;;;;;;;;5068665;28;20450;-43
2023/04/07 05:41:38;;;;;;;3.15;1.83;;;;;;;;;;5068262;28;20126;-43
2023/04/07 05:44:05;;;;;;;2.47;1.58;;;;;;;;;;5067988;28;20534;-43
2023/04/07 05:46:31;;;;;;;2.45;1.70;;;;;;;;;;5068864;28;20107;-43
2023/04/07 05:48:57;;;;;;;2.55;1.60;;;;;;;;;;5068614;28;20156;-43
2023/04/07 05:51:23;;;;;;;3.35;1.85;;;;;;;;;;5068549;28;20093;-43
2023/04/07 05:53:49;;;;;;;3.17;1.95;;;;;;;;;;5068598;28;20057;-42
2023/04/07 05:56:15;;;;;;;2.72;1.65;;;;;;;;;;5068392;28;20069;-44
2023/04/07 05:58:41;;;;;;;2.70;1.95;;;;;;;;;;5067957;28;20555;-43
2023/04/07 06:01:07;;;;;;;4.50;1.92;;;;;;;;;;5068173;28;20094;-43
2023/04/07 06:03:33;;;;;;;3.78;1.83;;;;;;;;;;5064526;28;20088;-43
2023/04/07 06:06:00;;;;;;;3.33;1.80;;;;;;;;;;5069231;28;20088;-43
2023/04/07 06:08:26;;;;;;;2.55;1.92;;;;;;;;;;5067567;28;20086;-43
2023/04/07 06:10:52;;;;;;;3.40;1.77;;;;;;;;;;5068962;28;20890;-43
2023/04/07 06:13:18;;;;;;;3.47;2.08;;;;;;;;;;5050824;28;20189;-43
2023/04/07 06:15:44;;;;;;;4.78;2.15;;;;;;;;;;5068439;28;20076;-43
2023/04/07 06:18:10;;;;;;;3.08;1.95;;;;;;;;;;5062041;28;20065;-44
2023/04/07 06:20:36;;;;;;;3.13;2.30;;;;;;;;;;5068800;28;20863;-43
2023/04/07 06:23:02;;;;;;;2.80;1.95;;;;;;;;;;5050920;28;20096;-43
2023/04/07 06:25:28;;;;;;;3.38;2.10;;;;;;;;;;5068603;28;20073;-43
2023/04/07 06:27:55;;;;;;;3.10;1.88;;;;;;;;;;5068524;28;20077;-43
2023/04/07 06:30:21;;;;;;;1.92;1.70;;;;;;;;;;5069229;28;20451;-43
2023/04/07 06:32:47;;;;;;;1.85;1.42;;;;;;;;;;5069031;28;20073;-43
2023/04/07 06:35:13;;;;;;;3.40;2.10;;;;;;;;;;5068027;28;20164;-44
2023/04/07 06:37:39;;;;;;;6.97;2.88;;;;;;;;;;5068487;28;20458;-44
2023/04/07 06:40:06;;;;;;;1.20;1.10;;;;;;;;;;5067168;28;20093;-42
2023/04/07 06:42:33;;;;;;;3.20;1.80;;;;;;;;;;5069146;28;20148;-43
2023/04/07 06:44:59;;;;;;;2.05;1.27;;;;;;;;;;5068794;28;20069;-43
2023/04/07 06:47:25;;;;;;;1.95;1.20;;;;;;;;;;5068741;28;20112;-43
2023/04/07 06:49:51;;;;;;;1.27;1.00;;;;;;;;;;5068710;28;20473;-43
2023/04/07 06:52:17;;;;;;;1.58;1.13;;;;;;;;;;5069203;28;20084;-43
2023/04/07 06:54:43;;;;;;;1.73;1.15;;;;;;;;;;5072711;28;20096;-42
2023/04/07 06:57:10;;;;;;;1.35;1.13;;;;;;;;;;5072610;28;20439;-42
2023/04/07 06:59:37;;;;;;;2.20;1.30;;;;;;;;;;5082534;28;20080;-43
2023/04/07 07:02:03;;;;;;;2.08;1.33;;;;;;;;;;5093053;28;20107;-43
2023/04/07 07:04:29;;;;;;;1.27;1.17;;;;;;;;;;5092778;28;20083;-43
2023/04/07 07:06:55;;;;;;;1.15;1.00;;;;;;;;;;5092873;28;20084;-43
2023/04/07 07:09:21;;;;;;;1.40;1.10;;;;;;;;;;5075154;28;20507;-43
2023/04/07 07:11:48;;;;;;;1.13;0.90;;;;;;;;;;5070158;28;20176;-43
2023/04/07 07:14:14;;;;;;;1.35;0.90;;;;;;;;;;5057475;28;20081;-42
2023/04/07 07:16:40;;;;;;;2.22;1.20;;;;;;;;;;5069832;28;20122;-43
2023/04/07 07:19:06;;;;;;;2.25;1.17;;;;;;;;;;5070000;28;20891;-43
2023/04/07 07:21:32;;;;;;;1.30;1.20;;;;;;;;;;5070600;28;20105;-43
2023/04/07 07:23:58;;;;;;;2.15;1.35;;;;;;;;;;5070301;28;20111;-44
2023/04/07 07:26:25;;;;;;;2.10;1.30;;;;;;;;;;5069785;28;20081;-42
2023/04/07 07:28:51;;;;;;;2.20;1.30;;;;;;;;;;5068570;28;20081;-43
2023/04/07 07:31:17;;;;;;;2.20;1.25;;;;;;;;;;5069553;28;20093;-43
2023/04/07 07:33:44;;;;;;;1.70;1.20;;;;;;;;;;5070047;28;20146;-44
2023/04/07 07:36:11;;;;;;;2.30;1.48;;;;;;;;;;5071071;28;20072;-42
2023/04/07 07:38:37;;;;;;;1.63;1.45;;;;;;;;;;5070143;28;20134;-43
2023/04/07 07:41:03;;;;;;;2.47;1.40;;;;;;;;;;5069182;28;20091;-43
2023/04/07 07:43:29;;;;;;;1.52;1.25;;;;;;;;;;5069791;28;20591;-43
2023/04/07 07:45:55;;;;;;;1.60;1.15;;;;;;;;;;5068928;28;20085;-43
2023/04/07 07:48:21;;;;;;;1.40;1.30;;;;;;;;;;5068784;28;20164;-43
2023/04/07 07:50:48;;;;;;;1.45;0.98;;;;;;;;;;5069475;28;20105;-42
2023/04/07 07:53:14;;;;;;;1.27;1.10;;;;;;;;;;5083100;28;20605;-42
2023/04/07 07:55:40;;;;;;;1.30;1.00;;;;;;;;;;5069832;28;20159;-42
2023/04/07 07:58:06;;;;;;;0.95;0.85;;;;;;;;;;5068857;28;20629;-43
2023/04/07 08:00:32;;;;;;;1.00;0.88;;;;;;;;;;5069201;28;20152;-43
2023/04/07 08:02:59;;;;;;;1.48;1.17;;;;;;;;;;5068266;28;20103;-43
2023/04/07 08:05:25;;;;;;;1.15;0.85;;;;;;;;;;5087751;28;20599;-43
2023/04/07 08:07:52;;;;;;;1.67;0.95;;;;;;;;;;5089643;28;20175;-43
2023/04/07 08:10:19;;;;;;;0.82;0.82;;;;;;;;;;5088264;28;20092;-44
2023/04/07 08:12:45;;;;;;;1.63;0.95;;;;;;;;;;5069365;28;20804;-43
2023/04/07 08:15:11;;;;;;;1.50;1.00;;;;;;;;;;5060524;28;20135;-43
2023/04/07 08:17:37;;;;;;;1.13;0.82;;;;;;;;;;5049333;28;20094;-42
2023/04/07 08:20:04;;;;;;;2.10;1.13;;;;;;;;;;5054657;28;20061;-42
2023/04/07 08:22:30;;;;;;;0.98;0.80;;;;;;;;;;5069273;28;20073;-44
2023/04/07 08:24:56;;;;;;;1.10;1.00;;;;;;;;;;5069433;28;20075;-44
2023/04/07 08:27:22;;;;;;;1.27;0.80;;;;;;;;;;5068912;28;20156;-42
2023/04/07 08:29:57;;;;;;;2.20;1.00;;;;;;;;;;5069261;28;20131;-43
2023/04/07 08:32:23;;;;;;;1.48;0.85;;;;;;;;;;5068577;28;20535;-42
2023/04/07 08:34:50;;;;;;;0.98;0.88;;;;;;;;;;5069109;28;20107;-43
2023/04/07 08:37:16;;;;;;;0.98;0.90;;;;;;;;;;5070563;28;20175;-44
2023/04/07 08:39:42;;;;;;;0.80;0.80;;;;;;;;;;5076067;28;20293;-42
2023/04/07 08:42:08;;;;;;;1.10;0.90;;;;;;;;;;5065705;28;20069;-43
2023/04/07 08:44:36;;;;;;;1.25;1.15;;;;;;;;;;5087580;28;20080;-43
2023/04/07 08:47:03;;;;;;;0.80;0.80;;;;;;;;;;5088825;28;20159;-43
2023/04/07 08:49:31;;;;;;;0.73;0.73;;;;;;;;;;5088729;28;20091;-43
2023/04/07 08:51:59;;;;;;;1.00;0.88;;;;;;;;;;5088616;28;21011;-43
2023/04/07 08:54:26;;;;;;;1.10;0.82;;;;;;;;;;5076646;28;20164;-43
2023/04/07 08:56:52;;;;;;;0.80;0.80;;;;;;;;;;5068092;28;20548;-43
2023/04/07 08:59:24;;;;;;;0.70;0.70;;;;;;;;;;5068248;28;20077;-44
2023/04/07 09:01:50;;;;;;;0.95;0.70;;;;;;;;;;5067611;28;20080;-44
2023/04/07 09:04:17;;;;;;;1.02;0.70;;;;;;;;;;5067047;28;20073;-44
2023/04/07 09:06:43;;;;;;;0.73;0.70;;;;;;;;;;5058874;28;20092;-44
2023/04/07 09:09:09;;;;;;;0.50;0.50;;;;;;;;;;5062465;28;20089;-43
2023/04/07 09:11:36;;;;;;;0.60;0.60;;;;;;;;;;5062669;28;20092;-44
2023/04/07 09:14:02;;;;;;;0.60;0.60;;;;;;;;;;5067202;28;20532;-43
2023/04/07 09:16:30;;;;;;;0.43;0.43;;;;;;;;;;5061971;28;20092;-43
2023/04/07 09:18:56;;;;;;;0.85;0.75;;;;;;;;;;5066986;28;20072;-44
2023/04/07 09:21:22;;;;;;;0.60;0.60;;;;;;;;;;5066866;28;20085;-43
2023/04/07 09:23:48;;;;;;;0.70;0.70;;;;;;;;;;5067579;28;20088;-43
2023/04/07 09:26:24;;;;;;;0.93;0.70;;;;;;;;;;5066360;28;20081;-44
2023/04/07 09:28:54;;;;;;;1.15;0.70;;;;;;;;;;5065952;28;20574;-43
2023/04/07 09:31:21;;;;;;;1.00;0.70;;;;;;;;;;5067833;28;20096;-43
2023/04/07 09:33:48;;;;;;;0.88;0.63;;;;;;;;;;5068265;28;20857;-44
2023/04/07 09:36:14;;;;;;;1.10;0.63;;;;;;;;;;5066406;28;20092;-44
2023/04/07 09:38:41;;;;;;;0.98;0.55;;;;;;;;;;5066540;28;20154;-43
2023/04/07 09:41:08;;;;;;;0.40;0.40;;;;;;;;;;5066261;28;20571;-46
2023/04/07 09:43:36;;;;;;;0.50;0.50;;;;;;;;;;5066498;28;20099;-43
2023/04/07 09:46:13;;;;;;;1.38;0.50;;;;;;;;;;5066233;28;20544;-43
2023/04/07 09:48:39;;;;;;;0.98;0.40;;;;;;;;;;5065789;28;20179;-43
2023/04/07 09:51:08;;;;;;;1.20;0.63;;;;;;;;;;5066571;28;20208;-44
2023/04/07 09:53:41;;;;;;;1.05;0.70;;;;;;;;;;5066048;28;20107;-44
2023/04/07 09:56:07;;;;;;;1.23;0.82;;;;;;;;;;5065185;28;20168;-43
2023/04/07 09:58:34;;;;;;;1.23;0.60;;;;;;;;;;5066759;28;20073;-44
2023/04/07 10:01:00;;;;;;;0.50;0.45;;;;;;;;;;5066158;28;20570;-43
2023/04/07 10:03:26;;;;;;;0.32;0.32;;;;;;;;;;5066421;28;20080;-44
2023/04/07 10:05:53;;;;;;;0.73;0.55;;;;;;;;;;5066356;28;20180;-43
2023/04/07 10:08:19;;;;;;;0.60;0.50;;;;;;;;;;5066276;28;20081;-43
2023/04/07 10:10:46;;;;;;;0.55;0.55;;;;;;;;;;5065972;28;20151;-45
2023/04/07 10:13:12;;;;;;;0.47;0.47;;;;;;;;;;5064598;28;20511;-43
2023/04/07 10:15:38;;;;;;;0.38;0.38;;;;;;;;;;5065283;28;20113;-43
2023/04/07 10:18:06;;;;;;;0.55;0.40;;;;;;;;;;5063429;28;20115;-43
2023/04/07 10:20:32;;;;;;;0.60;0.47;;;;;;;;;;5067485;28;20147;-43
2023/04/07 10:23:03;;;;;;;0.85;0.40;;;;;;;;;;5067158;28;20077;-43
2023/04/07 10:25:29;;;;;;;0.30;0.30;;;;;;;;;;5066807;28;20127;-44
2023/04/07 10:27:59;;;;;;;0.85;0.47;;;;;;;;;;5070307;28;20077;-43
2023/04/07 10:30:29;;;;;;;0.45;0.45;;;;;;;;;;5070991;28;20498;-43
2023/04/07 10:32:55;;;;;;;1.50;0.60;;;;;;;;;;5071188;28;20413;-43
2023/04/07 10:35:22;;;;;;;1.10;0.73;;;;;;;;;;5071199;28;20073;-44
2023/04/07 10:38:06;;;;;;;1.30;0.60;;;;;;;;;;5071766;28;20110;-44
2023/04/07 10:40:33;;;;;;;0.50;0.50;;;;;;;;;;5052871;28;20124;-44
2023/04/07 10:43:00;;;;;;;1.15;0.63;;;;;;;;;;5070823;28;20075;-43
2023/04/07 10:45:44;;;;;;;0.60;0.32;;;;;;;;;;5070715;28;20081;-43
2023/04/07 10:48:11;;;;;;;1.38;0.75;;;;;;;;;;5070144;28;20072;-44
2023/04/07 10:50:37;;;;;;;0.98;0.63;;;;;;;;;;5071158;28;20097;-44
2023/04/07 10:53:07;;;;;;;1.05;0.55;;;;;;;;;;5069972;28;20552;-43
2023/04/07 10:55:34;;;;;;;1.80;0.70;;;;;;;;;;5069910;28;20115;-43
2023/04/07 10:58:14;;;;;;;0.73;0.60;;;;;;;;;;5072437;28;20065;-43
2023/04/07 11:00:40;;;;;;;0.70;0.50;;;;;;;;;;5032982;28;20567;-44
2023/04/07 11:03:12;;;;;;;0.65;0.45;;;;;;;;;;5061392;28;20073;-45
2023/04/07 11:05:41;;;;;;;0.95;0.50;;;;;;;;;;5069344;28;20081;-43
2023/04/07 11:08:07;;;;;;;0.88;0.70;;;;;;;;;;5069147;28;20091;-45
2023/04/07 11:10:34;;;;;;;1.92;0.65;;;;;;;;;;5062981;28;20109;-43
2023/04/07 11:13:05;;;;;;;0.70;0.52;;;;;;;;;;5068279;28;20073;-48
2023/04/07 11:15:32;;;;;;;1.23;0.85;;;;;;;;;;5070394;28;20107;-45
2023/04/07 11:18:18;;;;;;;1.83;0.85;;;;;;;;;;5062998;28;20127;-44
2023/04/07 11:20:52;;;;;;;1.48;0.70;;;;;;;;;;5070243;28;20466;-44
2023/04/07 11:23:19;;;;;;;1.88;0.85;;;;;;;;;;5071092;28;20076;-44
2023/04/07 11:25:46;;;;;;;1.83;0.70;;;;;;;;;;5068875;28;20732;-43
2023/04/07 11:28:13;;;;;;;1.88;0.90;;;;;;;;;;5068823;28;20077;-44
2023/04/07 11:30:44;;;;;;;0.52;0.50;;;;;;;;;;5069156;28;20089;-43
2023/04/07 11:33:14;;;;;;;0.50;0.50;;;;;;;;;;5067945;28;20123;-44
2023/04/07 11:35:46;;;;;;;0.65;0.50;;;;;;;;;;5068241;28;20109;-44
2023/04/07 11:38:12;;;;;;;0.50;0.50;;;;;;;;;;5067528;28;20073;-44
2023/04/07 11:40:38;;;;;;;0.65;0.43;;;;;;;;;;5068774;28;20107;-44
2023/04/07 11:43:28;;;;;;;0.40;0.40;;;;;;;;;;5068699;28;20490;-44
2023/04/07 11:46:04;;;;;;;1.08;0.60;;;;;;;;;;5058312;28;20093;-44
2023/04/07 11:48:31;;;;;;;4.15;0.73;;;;;;;;;;5068650;28;20103;-43
2023/04/07 11:50:57;;;;;;;2.13;0.60;;;;;;;;;;5069077;28;20097;-44
2023/04/07 11:53:33;;;;;;;1.35;0.63;;;;;;;;;;5068995;28;20073;-44
2023/04/07 11:56:15;;;;;;;0.73;0.60;;;;;;;;;;5068911;28;20064;-44
2023/04/07 11:58:46;;;;;;;0.40;0.40;;;;;;;;;;5068753;28;20124;-44
2023/04/07 12:01:12;;;;;;;0.63;0.60;;;;;;;;;;5069070;28;20076;-45
2023/04/07 12:03:54;;;;;;;0.55;0.40;;;;;;;;;;5068933;28;20559;-44
2023/04/07 12:06:32;;;;;;;0.80;0.40;;;;;;;;;;5069428;28;20073;-44
2023/04/07 12:08:58;;;;;;;0.82;0.65;;;;;;;;;;5068657;28;20810;-43
2023/04/07 12:11:24;;;;;;;0.80;0.60;;;;;;;;;;5068592;28;20600;-43
2023/04/07 12:13:50;;;;;;;0.93;0.73;;;;;;;;;;5069265;28;20076;-45
2023/04/07 12:16:16;;;;;;;0.75;0.50;;;;;;;;;;5069273;28;20069;-44
2023/04/07 12:18:43;;;;;;;0.68;0.63;;;;;;;;;;5068521;28;20120;-44
2023/04/07 12:21:09;;;;;;;0.88;0.47;;;;;;;;;;5068623;28;20112;-45
2023/04/07 12:23:35;;;;;;;0.60;0.60;;;;;;;;;;5068281;28;20076;-44
2023/04/07 12:26:01;;;;;;;0.50;0.47;;;;;;;;;;5068376;28;20069;-44
2023/04/07 12:28:27;;;;;;;0.95;0.45;;;;;;;;;;5067059;28;20088;-44
2023/04/07 12:30:55;;;;;;;0.50;0.35;;;;;;;;;;5066997;28;20085;-44
2023/04/07 12:33:21;;;;;;;0.50;0.43;;;;;;;;;;5067897;28;20535;-44
2023/04/07 12:35:48;;;;;;;0.50;0.30;;;;;;;;;;5067369;28;20069;-47
2023/04/07 12:38:14;;;;;;;0.40;0.30;;;;;;;;;;5066556;28;20619;-46
2023/04/07 12:40:42;;;;;;;0.30;0.30;;;;;;;;;;5066465;28;20075;-43
2023/04/07 12:43:08;;;;;;;0.32;0.30;;;;;;;;;;5066674;28;20615;-46
2023/04/07 12:45:34;;;;;;;1.27;0.57;;;;;;;;;;5066789;28;20447;-44
2023/04/07 12:48:00;;;;;;;0.45;0.30;;;;;;;;;;5066103;28;20084;-46
2023/04/07 12:50:26;;;;;;;0.40;0.40;;;;;;;;;;5065448;28;20157;-44
2023/04/07 12:52:53;;;;;;;0.82;0.30;;;;;;;;;;5066183;28;20160;-44
2023/04/07 12:55:19;;;;;;;0.30;0.30;;;;;;;;;;5066975;28;20068;-44
2023/04/07 12:57:46;;;;;;;0.32;0.30;;;;;;;;;;5066106;28;20586;-46
2023/04/07 13:00:12;;;;;;;0.25;0.25;;;;;;;;;;5066355;28;20069;-48
2023/04/07 13:02:38;;;;;;;0.30;0.30;;;;;;;;;;5066133;28;20073;-44
2023/04/07 13:05:04;;;;;;;0.65;0.30;;;;;;;;;;5056051;28;20448;-45
2023/04/07 13:07:30;;;;;;;0.43;0.40;;;;;;;;;;5046479;28;20070;-44
2023/04/07 13:09:56;;;;;;;0.35;0.30;;;;;;;;;;5045807;28;20151;-45
2023/04/07 13:12:23;;;;;;;0.40;0.40;;;;;;;;;;5046575;28;20575;-45
2023/04/07 13:14:49;;;;;;;1.40;0.30;;;;;;;;;;5046626;28;20467;-44
2023/04/07 13:17:17;;;;;;;0.30;0.30;;;;;;;;;;5046081;28;20066;-44
2023/04/07 13:19:47;;;;;;;0.50;0.50;;;;;;;;;;5045871;28;20062;-45
2023/04/07 13:22:14;;;;;;;0.75;0.40;;;;;;;;;;5045784;28;20084;-44
2023/04/07 13:24:40;;;;;;;0.40;0.35;;;;;;;;;;5045771;28;20070;-45
2023/04/07 13:27:06;;;;;;;1.55;0.50;;;;;;;;;;5045901;28;20084;-44
2023/04/07 13:29:32;;;;;;;0.38;0.38;;;;;;;;;;5046072;28;20583;-44
2023/04/07 13:32:14;;;;;;;0.30;0.30;;;;;;;;;;5045595;28;20091;-44
2023/04/07 13:34:40;;;;;;;1.05;0.88;;;;;;;;;;5045536;28;20077;-44
2023/04/07 13:37:06;;;;;;;0.50;0.50;;;;;;;;;;5045733;28;20073;-44
2023/04/07 13:39:32;;;;;;;0.52;0.40;;;;;;;;;;5045267;28;20149;-46
2023/04/07 13:41:58;;;;;;;0.43;0.40;;;;;;;;;;5045541;28;20570;-44
2023/04/07 13:44:28;;;;;;;0.35;0.30;;;;;;;;;;5045732;28;20560;-45
2023/04/07 13:46:54;;;;;;;0.60;0.50;;;;;;;;;;5045890;28;20168;-45
2023/04/07 13:49:21;;;;;;;0.70;0.30;;;;;;;;;;5045878;28;20080;-45
2023/04/07 13:51:47;;;;;;;0.32;0.30;;;;;;;;;;5045250;28;20523;-47
2023/04/07 13:54:13;;;;;;;1.13;0.40;;;;;;;;;;5045216;28;20451;-44
2023/04/07 13:56:39;;;;;;;1.10;0.38;;;;;;;;;;5045751;28;20069;-46
2023/04/07 13:59:06;;;;;;;0.75;0.50;;;;;;;;;;5045279;28;20587;-44
2023/04/07 14:01:34;;;;;;;0.40;0.40;;;;;;;;;;5045358;28;20427;-45
2023/04/07 14:04:01;;;;;;;0.30;0.30;;;;;;;;;;5045084;28;20077;-44
2023/04/07 14:06:27;;;;;;;0.30;0.30;;;;;;;;;;5045044;28;20085;-44
2023/04/07 14:08:53;;;;;;;0.82;0.43;;;;;;;;;;5044781;28;20066;-44
2023/04/07 14:11:21;;;;;;;0.47;0.30;;;;;;;;;;5045708;28;20085;-43
2023/04/07 14:13:49;;;;;;;0.75;0.38;;;;;;;;;;5045959;28;20507;-46
2023/04/07 14:16:15;;;;;;;0.40;0.40;;;;;;;;;;5045630;28;20152;-46
2023/04/07 14:18:41;;;;;;;0.60;0.40;;;;;;;;;;5044903;28;20073;-45
2023/04/07 14:21:08;;;;;;;0.80;0.43;;;;;;;;;;5045209;28;20076;-45
2023/04/07 14:23:34;;;;;;;0.35;0.30;;;;;;;;;;5044827;28;20124;-45
2023/04/07 14:26:00;;;;;;;0.55;0.30;;;;;;;;;;5045356;28;20084;-44
2023/04/07 14:28:27;;;;;;;0.55;0.30;;;;;;;;;;5044961;28;20082;-45
2023/04/07 14:30:54;;;;;;;1.15;0.50;;;;;;;;;;5045054;28;20574;-45
2023/04/07 14:33:20;;;;;;;0.70;0.30;;;;;;;;;;5045637;28;20073;-44
2023/04/07 14:35:47;;;;;;;0.43;0.30;;;;;;;;;;5045005;28;20065;-45
2023/04/07 14:38:13;;;;;;;0.30;0.30;;;;;;;;;;5044659;28;20100;-45
2023/04/07 14:40:39;;;;;;;0.40;0.30;;;;;;;;;;5044789;28;20098;-44
2023/04/07 14:43:06;;;;;;;0.40;0.30;;;;;;;;;;5045025;28;20069;-45
2023/04/07 14:45:32;;;;;;;0.30;0.30;;;;;;;;;;5044817;28;20455;-44
2023/04/07 14:47:59;;;;;;;0.30;0.25;;;;;;;;;;5044576;28;20533;-47
2023/04/07 14:50:26;;;;;;;0.30;0.30;;;;;;;;;;5044669;28;20475;-45
2023/04/07 14:52:52;;;;;;;0.70;0.30;;;;;;;;;;5045351;28;20153;-45
2023/04/07 14:55:18;;;;;;;0.63;0.40;;;;;;;;;;5044562;28;20321;-45
2023/04/07 14:57:44;;;;;;;0.40;0.28;;;;;;;;;;5045166;28;20077;-48
2023/04/07 15:00:11;;;;;;;0.35;0.30;;;;;;;;;;5044863;28;20066;-46
2023/04/07 15:02:38;;;;;;;0.38;0.30;;;;;;;;;;5044763;28;20101;-46
2023/04/07 15:05:04;;;;;;;0.50;0.50;;;;;;;;;;5062643;28;20151;-45
2023/04/07 15:07:30;;;;;;;0.55;0.40;;;;;;;;;;5064542;28;20103;-45
2023/04/07 15:09:58;;;;;;;0.65;0.57;;;;;;;;;;5046088;28;20579;-46
2023/04/07 15:12:25;;;;;;;0.20;0.20;;;;;;;;;;5045566;28;20554;-44
2023/04/07 15:14:51;;;;;;;0.90;0.40;;;;;;;;;;5067766;28;20073;-45
2023/04/07 15:17:17;;;;;;;0.70;0.40;;;;;;;;;;5071314;28;20536;-46
2023/04/07 15:19:43;;;;;;;0.30;0.30;;;;;;;;;;5067992;28;20069;-44
2023/04/07 15:22:09;;;;;;;0.40;0.40;;;;;;;;;;5068025;28;20554;-45
2023/04/07 15:24:35;;;;;;;1.98;0.40;;;;;;;;;;5067872;28;20107;-46
2023/04/07 15:27:01;;;;;;;0.38;0.30;;;;;;;;;;5067843;28;20387;-45
2023/04/07 15:29:27;;;;;;;0.80;0.40;;;;;;;;;;5067709;28;20582;-45
2023/04/07 15:31:53;;;;;;;0.60;0.40;;;;;;;;;;5068941;28;20179;-47
2023/04/07 15:34:19;;;;;;;0.40;0.30;;;;;;;;;;5069789;28;20520;-46
2023/04/07 15:36:45;;;;;;;0.75;0.40;;;;;;;;;;5068779;28;20097;-49
2023/04/07 15:39:11;;;;;;;0.35;0.35;;;;;;;;;;5067293;28;20212;-46
2023/04/07 15:41:37;;;;;;;0.30;0.30;;;;;;;;;;5067907;28;20080;-46
2023/04/07 15:44:04;;;;;;;0.40;0.30;;;;;;;;;;5068149;28;20076;-47
2023/04/07 15:46:32;;;;;;;0.30;0.30;;;;;;;;;;5066396;28;20080;-45
2023/04/07 15:48:59;;;;;;;1.30;0.73;;;;;;;;;;5067937;28;20079;-46
2023/04/07 15:51:26;;;;;;;0.30;0.30;;;;;;;;;;5067346;28;20107;-46
2023/04/07 15:53:52;;;;;;;0.32;0.30;;;;;;;;;;5071292;28;20563;-47
2023/04/07 15:56:18;;;;;;;0.20;0.20;;;;;;;;;;5067165;28;20073;-45
2023/04/07 15:58:44;;;;;;;0.98;0.40;;;;;;;;;;5067206;28;20486;-45
2023/04/07 16:01:11;;;;;;;0.50;0.30;;;;;;;;;;5067307;28;20146;-46
2023/04/07 16:03:37;;;;;;;0.50;0.40;;;;;;;;;;5067863;28;20501;-47
2023/04/07 16:06:03;;;;;;;0.28;0.28;;;;;;;;;;5066553;28;20077;-48
2023/04/07 16:08:29;;;;;;;0.60;0.45;;;;;;;;;;5067420;28;20065;-44
2023/04/07 16:10:55;;;;;;;0.50;0.35;;;;;;;;;;5067129;28;20109;-44
2023/04/07 16:13:20;;;;;;;0.70;0.30;;;;;;;;;;5068034;28;20077;-45
2023/04/07 16:15:46;;;;;;;0.95;0.30;;;;;;;;;;5067018;28;20563;-46
2023/04/07 16:18:12;;;;;;;0.80;0.80;;;;;;;;;;5067143;28;20068;-45
2023/04/07 16:20:38;;;;;;;0.30;0.30;;;;;;;;;;5067029;28;20077;-49
2023/04/07 16:23:04;;;;;;;0.40;0.20;;;;;;;;;;5067139;28;20077;-44
2023/04/07 16:25:30;;;;;;;0.73;0.28;;;;;;;;;;5066903;28;20073;-47
2023/04/07 16:27:56;;;;;;;1.13;0.50;;;;;;;;;;5066884;28;20077;-48
2023/04/07 16:30:23;;;;;;;1.15;0.50;;;;;;;;;;5067511;28;20158;-46
2023/04/07 16:32:50;;;;;;;0.43;0.30;;;;;;;;;;5067359;28;20121;-48
2023/04/07 16:35:16;;;;;;;0.43;0.40;;;;;;;;;;5066947;28;20080;-49
2023/04/07 16:37:45;;;;;;;0.63;0.40;;;;;;;;;;5066739;28;20073;-45
2023/04/07 16:40:11;;;;;;;0.60;0.40;;;;;;;;;;5066639;28;20080;-45
2023/04/07 16:42:37;;;;;;;0.30;0.30;;;;;;;;;;5066761;28;20075;-45
2023/04/07 16:45:04;;;;;;;0.30;0.30;;;;;;;;;;5066632;28;20080;-48
2023/04/07 16:47:30;;;;;;;0.63;0.30;;;;;;;;;;5066688;28;20096;-46
2023/04/07 16:49:56;;;;;;;0.57;0.40;;;;;;;;;;5066196;28;20172;-45
2023/04/07 16:52:22;;;;;;;0.90;0.40;;;;;;;;;;5066889;28;20180;-46
2023/04/07 16:54:49;;;;;;;0.35;0.32;;;;;;;;;;5066636;28;20152;-47
2023/04/07 16:57:15;;;;;;;0.85;0.45;;;;;;;;;;5066593;28;20499;-49
2023/04/07 16:59:41;;;;;;;0.32;0.30;;;;;;;;;;5065468;28;20073;-48
2023/04/07 17:02:09;;;;;;;1.20;0.30;;;;;;;;;;5067222;28;20081;-46
2023/04/07 17:04:35;;;;;;;1.30;0.60;;;;;;;;;;5065734;28;20534;-48
2023/04/07 17:07:02;;;;;;;0.30;0.30;;;;;;;;;;5063808;28;20131;-47
2023/04/07 17:09:28;;;;;;;0.90;0.60;;;;;;;;;;5052804;28;20176;-44
2023/04/07 17:11:55;;;;;;;2.13;0.60;;;;;;;;;;5056222;28;20096;-45
2023/04/07 17:14:21;;;;;;;0.50;0.40;;;;;;;;;;5067613;28;20532;-45
2023/04/07 17:16:47;;;;;;;0.90;0.43;;;;;;;;;;5065127;28;20081;-48
2023/04/07 17:19:13;;;;;;;0.43;0.40;;;;;;;;;;5066790;28;20085;-45
2023/04/07 17:21:40;;;;;;;0.60;0.40;;;;;;;;;;5067099;28;20526;-48
2023/04/07 17:24:06;;;;;;;0.38;0.38;;;;;;;;;;5067154;28;20076;-48
2023/04/07 17:26:32;;;;;;;0.90;0.55;;;;;;;;;;5066853;28;20077;-46
2023/04/07 17:28:59;;;;;;;0.40;0.30;;;;;;;;;;5066578;28;20084;-48
2023/04/07 17:31:25;;;;;;;0.57;0.35;;;;;;;;;;5067145;28;20112;-44
2023/04/07 17:33:52;;;;;;;2.30;0.43;;;;;;;;;;5067757;28;20511;-46
2023/04/07 17:36:18;;;;;;;0.70;0.38;;;;;;;;;;5066166;28;20077;-49
2023/04/07 17:38:44;;;;;;;1.13;0.70;;;;;;;;;;5066237;28;20096;-46
2023/04/07 17:41:11;;;;;;;0.90;0.85;;;;;;;;;;5065667;28;20077;-46
2023/04/07 17:43:38;;;;;;;1.75;1.00;;;;;;;;;;5065460;28;20077;-47
2023/04/07 17:46:05;;;;;;;1.98;1.27;;;;;;;;;;5063996;28;20101;-48
2023/04/07 17:48:31;;;;;;;1.80;1.10;;;;;;;;;;5063914;28;20076;-45
2023/04/07 17:50:58;;;;;;;2.42;1.27;;;;;;;;;;5063325;28;20097;-48
2023/04/07 17:53:25;;;;;;;2.05;1.10;;;;;;;;;;5064572;28;20123;-45
2023/04/07 17:55:51;;;;;;;2.08;1.00;;;;;;;;;;5063227;28;20073;-45
2023/04/07 17:58:19;;;;;;;2.55;1.35;;;;;;;;;;5062563;28;20077;-47
2023/04/07 18:00:46;;;;;;;2.05;1.10;;;;;;;;;;5069723;28;20466;-46
2023/04/07 18:03:13;;;;;;;1.58;1.00;;;;;;;;;;5084266;28;20116;-46
2023/04/07 18:05:42;;;;;;;1.35;0.73;;;;;;;;;;5071740;28;20292;-49
2023/04/07 18:08:09;;;;;;;2.90;1.20;;;;;;;;;;5079914;28;20436;-48
2023/04/07 18:10:36;;;;;;;2.10;1.13;;;;;;;;;;5063388;28;20097;-48
2023/04/07 18:13:04;;;;;;;1.42;0.73;;;;;;;;;;5063468;28;20544;-48
2023/04/07 18:15:30;;;;;;;6.38;3.03;;;;;;;;;;5063004;28;20117;-44
2023/04/07 18:17:56;;;;;;;5.07;2.42;;;;;;;;;;5063047;28;20146;-46
2023/04/07 18:20:22;;;;;;;3.67;1.80;;;;;;;;;;5061961;28;20846;-45
2023/04/07 18:22:50;;;;;;;3.28;1.60;;;;;;;;;;5061314;28;20151;-45
2023/04/07 18:25:16;;;;;;;2.50;1.30;;;;;;;;;;5062546;28;20222;-48
2023/04/07 18:27:42;;;;;;;2.35;1.15;;;;;;;;;;5062149;28;20160;-46
2023/04/07 18:30:09;;;;;;;3.30;1.83;;;;;;;;;;5061953;28;20562;-44
2023/04/07 18:32:35;;;;;;;2.17;1.40;;;;;;;;;;5060170;28;20097;-48
2023/04/07 18:35:01;;;;;;;2.25;1.35;;;;;;;;;;5062856;28;20728;-46
2023/04/07 18:37:28;;;;;;;2.92;1.25;;;;;;;;;;5062310;28;20069;-46
2023/04/07 18:39:55;;;;;;;1.55;1.17;;;;;;;;;;5042677;28;20078;-45
2023/04/07 18:42:21;;;;;;;1.90;1.30;;;;;;;;;;5032657;28;20440;-48
2023/04/07 18:44:47;;;;;;;2.00;1.33;;;;;;;;;;5062701;28;20602;-46
2023/04/07 18:47:13;;;;;;;1.10;0.95;;;;;;;;;;5063243;28;20555;-45
2023/04/07 18:49:39;;;;;;;1.70;1.00;;;;;;;;;;5048418;28;20070;-48
2023/04/07 18:52:05;;;;;;;2.38;1.10;;;;;;;;;;5066899;28;20163;-44
2023/04/07 18:54:31;;;;;;;5.82;1.80;;;;;;;;;;5065337;28;20129;-45
2023/04/07 18:56:58;;;;;;;6.03;2.83;;;;;;;;;;5067451;28;20645;-45
2023/04/07 18:59:26;;;;;;;8.13;4.93;;;;;;;;;;5067523;28;20246;-48
2023/04/07 19:01:53;;;;;;;15.60;7.40;;;;;;;;;;5067064;28;20077;-48
2023/04/07 19:04:19;;;;;;;26.73;11.95;;;;;;;;;;5066429;28;20571;-49
2023/04/07 19:06:50;;;;;;;24.33;11.52;;;;;;;;;;5058040;28;20093;-48
2023/04/07 19:09:16;;;;;;;27.23;11.95;;;;;;;;;;5066523;28;20259;-45
2023/04/07 19:11:42;;;;;;;18.70;9.05;;;;;;;;;;5066298;28;20180;-45
2023/04/07 19:14:08;;;;;;;16.17;8.43;;;;;;;;;;5065739;28;20073;-45
2023/04/07 19:16:34;;;;;;;20.30;9.80;;;;;;;;;;5066913;28;20065;-46
2023/04/07 19:19:00;;;;;;;15.65;8.38;;;;;;;;;;5066598;28;20074;-45
2023/04/07 19:21:26;;;;;;;15.13;7.13;;;;;;;;;;5065750;28;20085;-47
2023/04/07 19:23:55;;;;;;;8.82;5.05;;;;;;;;;;5066611;28;20567;-48
2023/04/07 19:26:21;;;;;;;7.75;4.18;;;;;;;;;;5067480;28;20073;-45
2023/04/07 19:28:48;;;;;;;7.40;4.03;;;;;;;;;;5066156;28;20122;-44
2023/04/07 19:31:14;;;;;;;5.85;3.00;;;;;;;;;;5066788;28;20089;-47
2023/04/07 19:33:40;;;;;;;3.90;2.58;;;;;;;;;;5066300;28;20232;-45
2023/04/07 19:36:07;;;;;;;3.95;2.08;;;;;;;;;;5075500;28;20163;-47
2023/04/07 19:38:33;;;;;;;2.13;1.50;;;;;;;;;;5065496;28;20069;-44
2023/04/07 19:40:59;;;;;;;2.13;1.35;;;;;;;;;;5048270;28;20104;-45
2023/04/07 19:43:25;;;;;;;3.40;1.42;;;;;;;;;;5064799;28;20535;-44
2023/04/07 19:45:53;;;;;;;1.85;1.10;;;;;;;;;;5066110;28;20084;-44
2023/04/07 19:48:19;;;;;;;1.05;0.70;;;;;;;;;;5066763;28;20270;-47